Pagrindinis puslapis
METAR-TAF:

METAR-TAF

Oro uostai :

Sočis, Rusija

platuma: 43-26N, ilguma: 039-54E, Aukštis: 16 m

Dabartinis oras

Ataskaita buvo paskelbta 35 minutes, ne 22:30 UTC
Ramus vėjas
Temperatūra 13°C
Drėgmė 88%
Slėgis 1018 hPa
Matomumas 10 km arba daugiau

METAR: URSS 302230Z 00000MPS 9999 NSC 13/11 Q1018 R06/010070 R02/010070 NOSIG RMK R02/04002MPS QFE762

Laikas: 03:05 (23:05 UTC)

Prognozė

Ataskaita buvo paskelbta 3 valandos ir 10 minutes, ne 19:55 UTC
Prognozė galioja nuo 30 metu 21 UTC su 31 metu 21 UTC
Vėjas 10 kt iš Šiaurės Rytų
Matomumas 10 km arba daugiau
Tapsmas
nuo 31 metu 07 UTC su 31 metu 08 UTC
Vėjas 12 kt iš Vakarų
Išsisklaidę debesys ne aukštis 3000 ft
Tapsmas
nuo 31 metu 16 UTC su 31 metu 17 UTC
Vėjas 10 kt iš Šiaurės Rytų

TAF: URSS 301955Z 3021/3121 05005MPS 9999 NSC BECMG 3107/3108 28006MPS SCT030 BECMG 3116/3117 05005MPS

Orai ataskaitas ir orų prognozės (METAR, TAF).

turimą stotys yra geltonos ir raudonos taškus žemėlapyje.

Perkelti pele per norėdami pamatyti stoties vardą.

Tada spustelėkite, norėdami matyti oro stebėjimo ir prognozės.

Norėdami pakeisti žemėlapį: spustelėkite ant žalios mygtukų su juodo kryžiaus žemyn,; žalią mygtuką su brūkšneliu, jei norite nutolinti; arba žalių rodyklių gretimoms žemėlapius.


METAR-TAF: